sensor_id;sensor_type;location;lat;lon;timestamp;pressure;altitude;pressure_sealevel;temperature;humidity
36798;BME280;22748;8.426;99.512;2023-05-21T00:00:11;100663.59;;;30.10;66.10
36798;BME280;22748;8.426;99.512;2023-05-21T00:02:47;100671.84;;;30.15;65.85
36798;BME280;22748;8.426;99.512;2023-05-21T00:05:25;100675.38;;;30.09;65.88
36798;BME280;22748;8.426;99.512;2023-05-21T00:07:57;100675.78;;;30.13;66.00
36798;BME280;22748;8.426;99.512;2023-05-21T00:10:28;100687.22;;;30.08;66.06
36798;BME280;22748;8.426;99.512;2023-05-21T00:13:11;100688.66;;;30.11;65.76
36798;BME280;22748;8.426;99.512;2023-05-21T00:15:42;100704.81;;;30.11;65.73
36798;BME280;22748;8.426;99.512;2023-05-21T00:18:12;100707.28;;;30.12;65.94
36798;BME280;22748;8.426;99.512;2023-05-21T00:20:45;100711.25;;;30.10;66.25
36798;BME280;22748;8.426;99.512;2023-05-21T00:23:16;100707.13;;;30.07;66.01
36798;BME280;22748;8.426;99.512;2023-05-21T00:25:47;100717.91;;;30.07;66.13
36798;BME280;22748;8.426;99.512;2023-05-21T00:28:28;100724.09;;;30.08;66.03
36798;BME280;22748;8.426;99.512;2023-05-21T00:31:01;100723.69;;;30.04;66.57
36798;BME280;22748;8.426;99.512;2023-05-21T00:33:32;100727.81;;;30.07;66.33
36798;BME280;22748;8.426;99.512;2023-05-21T00:36:08;100736.13;;;30.05;66.90
36798;BME280;22748;8.426;99.512;2023-05-21T00:38:44;100742.59;;;29.91;67.47
36798;BME280;22748;8.426;99.512;2023-05-21T00:41:15;100748.81;;;29.91;67.42
36798;BME280;22748;8.426;99.512;2023-05-21T00:43:45;100757.72;;;29.99;67.24
36798;BME280;22748;8.426;99.512;2023-05-21T00:46:23;100763.69;;;30.07;67.11
36798;BME280;22748;8.426;99.512;2023-05-21T00:49:00;100751.41;;;30.11;67.31
36798;BME280;22748;8.426;99.512;2023-05-21T00:51:31;100763.00;;;30.19;66.80
36798;BME280;22748;8.426;99.512;2023-05-21T00:54:03;100759.88;;;30.22;67.10
36798;BME280;22748;8.426;99.512;2023-05-21T00:56:40;100767.13;;;30.28;67.12
36798;BME280;22748;8.426;99.512;2023-05-21T00:59:18;100771.66;;;30.34;66.96
36798;BME280;22748;8.426;99.512;2023-05-21T01:01:55;100776.59;;;30.37;66.98
36798;BME280;22748;8.426;99.512;2023-05-21T01:04:37;100784.03;;;30.42;67.36
36798;BME280;22748;8.426;99.512;2023-05-21T01:07:07;100776.97;;;30.47;66.97
36798;BME280;22748;8.426;99.512;2023-05-21T01:09:52;100774.88;;;30.49;67.44
36798;BME280;22748;8.426;99.512;2023-05-21T01:12:23;100775.69;;;30.50;67.14
36798;BME280;22748;8.426;99.512;2023-05-21T01:15:00;100776.72;;;30.55;67.11
36798;BME280;22748;8.426;99.512;2023-05-21T01:17:32;100782.94;;;30.56;66.82
36798;BME280;22748;8.426;99.512;2023-05-21T01:20:03;100788.06;;;30.64;66.66
36798;BME280;22748;8.426;99.512;2023-05-21T01:23:00;100781.41;;;30.67;66.17
36798;BME280;22748;8.426;99.512;2023-05-21T01:25:30;100781.56;;;30.72;66.61
36798;BME280;22748;8.426;99.512;2023-05-21T01:28:08;100786.72;;;30.80;66.35
36798;BME280;22748;8.426;99.512;2023-05-21T01:30:48;100792.25;;;30.85;66.43
36798;BME280;22748;8.426;99.512;2023-05-21T01:33:27;100794.56;;;30.88;66.39
36798;BME280;22748;8.426;99.512;2023-05-21T01:36:01;100794.59;;;30.82;66.80
36798;BME280;22748;8.426;99.512;2023-05-21T01:38:59;100799.56;;;30.78;66.87
36798;BME280;22748;8.426;99.512;2023-05-21T01:41:36;100807.06;;;30.76;67.10
36798;BME280;22748;8.426;99.512;2023-05-21T01:44:08;100801.59;;;30.89;66.53
36798;BME280;22748;8.426;99.512;2023-05-21T01:46:40;100813.16;;;30.96;66.10
36798;BME280;22748;8.426;99.512;2023-05-21T01:49:18;100813.94;;;31.04;65.92
36798;BME280;22748;8.426;99.512;2023-05-21T01:51:50;100823.88;;;31.10;66.36
36798;BME280;22748;8.426;99.512;2023-05-21T01:54:27;100818.03;;;31.13;66.18
36798;BME280;22748;8.426;99.512;2023-05-21T01:56:57;100815.16;;;31.08;66.10
36798;BME280;22748;8.426;99.512;2023-05-21T01:59:33;100819.66;;;31.14;66.37
36798;BME280;22748;8.426;99.512;2023-05-21T02:02:05;100821.47;;;31.20;65.87
36798;BME280;22748;8.426;99.512;2023-05-21T02:04:36;100821.66;;;31.25;65.93
36798;BME280;22748;8.426;99.512;2023-05-21T02:07:12;100831.25;;;31.21;65.62
36798;BME280;22748;8.426;99.512;2023-05-21T02:09:51;100826.59;;;31.28;65.55
36798;BME280;22748;8.426;99.512;2023-05-21T02:12:26;100831.56;;;31.31;65.46
36798;BME280;22748;8.426;99.512;2023-05-21T02:15:02;100828.66;;;31.33;65.42
36798;BME280;22748;8.426;99.512;2023-05-21T02:17:33;100832.34;;;31.39;65.19
36798;BME280;22748;8.426;99.512;2023-05-21T02:20:06;100831.50;;;31.45;65.33
36798;BME280;22748;8.426;99.512;2023-05-21T02:22:39;100829.81;;;31.44;65.16
36798;BME280;22748;8.426;99.512;2023-05-21T02:25:13;100835.16;;;31.50;65.03
36798;BME280;22748;8.426;99.512;2023-05-21T02:27:44;100841.78;;;31.54;64.69
36798;BME280;22748;8.426;99.512;2023-05-21T02:30:15;100841.91;;;31.60;64.54
36798;BME280;22748;8.426;99.512;2023-05-21T02:32:44;100848.78;;;31.62;64.06
36798;BME280;22748;8.426;99.512;2023-05-21T02:35:16;100851.84;;;31.66;63.91
36798;BME280;22748;8.426;99.512;2023-05-21T02:37:47;100846.44;;;31.66;63.83
36798;BME280;22748;8.426;99.512;2023-05-21T02:40:22;100842.03;;;31.71;63.45
36798;BME280;22748;8.426;99.512;2023-05-21T02:42:53;100848.63;;;31.75;63.61
36798;BME280;22748;8.426;99.512;2023-05-21T02:45:24;100842.78;;;31.78;63.52
36798;BME280;22748;8.426;99.512;2023-05-21T02:47:55;100841.88;;;31.85;63.30
36798;BME280;22748;8.426;99.512;2023-05-21T02:50:30;100842.72;;;31.85;63.33
36798;BME280;22748;8.426;99.512;2023-05-21T02:53:01;100847.91;;;31.87;62.85
36798;BME280;22748;8.426;99.512;2023-05-21T02:55:35;100851.81;;;31.91;62.57
36798;BME280;22748;8.426;99.512;2023-05-21T02:58:06;100844.72;;;31.90;61.82
36798;BME280;22748;8.426;99.512;2023-05-21T03:00:37;100853.44;;;31.92;62.26
36798;BME280;22748;8.426;99.512;2023-05-21T03:03:07;100851.13;;;31.95;62.33
36798;BME280;22748;8.426;99.512;2023-05-21T03:05:38;100855.88;;;32.00;62.06
36798;BME280;22748;8.426;99.512;2023-05-21T03:08:15;100847.56;;;32.02;61.87
36798;BME280;22748;8.426;99.512;2023-05-21T03:10:59;100843.78;;;32.03;61.39
36798;BME280;22748;8.426;99.512;2023-05-21T03:13:35;100846.28;;;32.04;61.48
36798;BME280;22748;8.426;99.512;2023-05-21T03:16:07;100839.81;;;32.05;61.48
36798;BME280;22748;8.426;99.512;2023-05-21T03:18:38;100837.72;;;32.07;61.69
36798;BME280;22748;8.426;99.512;2023-05-21T03:21:11;100831.63;;;32.12;61.44
36798;BME280;22748;8.426;99.512;2023-05-21T03:23:49;100838.47;;;32.14;61.34
36798;BME280;22748;8.426;99.512;2023-05-21T03:26:27;100840.34;;;32.14;60.71
36798;BME280;22748;8.426;99.512;2023-05-21T03:28:58;100836.50;;;32.22;60.31
36798;BME280;22748;8.426;99.512;2023-05-21T03:31:29;100834.19;;;32.25;60.42
36798;BME280;22748;8.426;99.512;2023-05-21T03:34:00;100826.44;;;32.29;60.42
36798;BME280;22748;8.426;99.512;2023-05-21T03:36:30;100824.72;;;32.34;60.68
36798;BME280;22748;8.426;99.512;2023-05-21T03:39:00;100821.19;;;32.34;60.21
36798;BME280;22748;8.426;99.512;2023-05-21T03:41:33;100814.25;;;32.38;60.49
36798;BME280;22748;8.426;99.512;2023-05-21T03:44:04;100815.31;;;32.37;59.92
36798;BME280;22748;8.426;99.512;2023-05-21T03:46:40;100809.44;;;32.40;59.56
36798;BME280;22748;8.426;99.512;2023-05-21T03:49:13;100805.09;;;32.39;59.94
36798;BME280;22748;8.426;99.512;2023-05-21T03:51:43;100797.59;;;32.41;60.27
36798;BME280;22748;8.426;99.512;2023-05-21T03:54:13;100804.78;;;32.47;59.94
36798;BME280;22748;8.426;99.512;2023-05-21T03:56:56;100798.41;;;32.42;59.51
36798;BME280;22748;8.426;99.512;2023-05-21T03:59:28;100804.63;;;32.42;59.70
36798;BME280;22748;8.426;99.512;2023-05-21T04:01:59;100801.22;;;32.53;59.53
36798;BME280;22748;8.426;99.512;2023-05-21T04:04:29;100802.91;;;32.48;59.55
36798;BME280;22748;8.426;99.512;2023-05-21T04:07:00;100793.22;;;32.58;58.96
36798;BME280;22748;8.426;99.512;2023-05-21T04:09:30;100788.53;;;32.66;59.29
36798;BME280;22748;8.426;99.512;2023-05-21T04:12:04;100784.78;;;32.67;58.16
36798;BME280;22748;8.426;99.512;2023-05-21T04:14:35;100779.97;;;32.69;58.46
36798;BME280;22748;8.426;99.512;2023-05-21T04:17:12;100771.66;;;32.82;58.86
36798;BME280;22748;8.426;99.512;2023-05-21T04:19:41;100762.84;;;32.87;58.62
36798;BME280;22748;8.426;99.512;2023-05-21T04:22:16;100764.84;;;32.91;58.28
36798;BME280;22748;8.426;99.512;2023-05-21T04:24:46;100766.03;;;32.95;58.74
36798;BME280;22748;8.426;99.512;2023-05-21T04:27:19;100759.78;;;32.95;58.40
36798;BME280;22748;8.426;99.512;2023-05-21T04:29:50;100755.91;;;33.03;58.18
36798;BME280;22748;8.426;99.512;2023-05-21T04:32:26;100750.03;;;33.06;57.69
36798;BME280;22748;8.426;99.512;2023-05-21T04:34:58;100751.22;;;33.10;58.23
36798;BME280;22748;8.426;99.512;2023-05-21T04:37:42;100750.28;;;33.16;57.69
36798;BME280;22748;8.426;99.512;2023-05-21T04:40:23;100744.41;;;33.19;57.19
36798;BME280;22748;8.426;99.512;2023-05-21T04:43:03;100729.38;;;33.23;56.84
36798;BME280;22748;8.426;99.512;2023-05-21T04:45:32;100727.22;;;33.25;56.48
36798;BME280;22748;8.426;99.512;2023-05-21T04:48:04;100709.94;;;33.26;56.40
36798;BME280;22748;8.426;99.512;2023-05-21T04:50:34;100701.13;;;33.19;56.77
36798;BME280;22748;8.426;99.512;2023-05-21T04:53:05;100703.25;;;33.17;56.76
36798;BME280;22748;8.426;99.512;2023-05-21T04:55:35;100696.97;;;33.16;56.75
36798;BME280;22748;8.426;99.512;2023-05-21T04:58:12;100694.28;;;33.28;56.96
36798;BME280;22748;8.426;99.512;2023-05-21T05:00:44;100693.34;;;33.34;56.11
36798;BME280;22748;8.426;99.512;2023-05-21T05:03:19;100692.03;;;33.37;56.52
36798;BME280;22748;8.426;99.512;2023-05-21T05:05:50;100677.69;;;33.36;56.49
36798;BME280;22748;8.426;99.512;2023-05-21T05:08:33;100675.41;;;33.45;55.88
36798;BME280;22748;8.426;99.512;2023-05-21T05:11:05;100662.34;;;33.42;55.75
36798;BME280;22748;8.426;99.512;2023-05-21T05:13:40;100661.63;;;33.47;55.00
36798;BME280;22748;8.426;99.512;2023-05-21T05:16:11;100654.56;;;33.46;55.38
36798;BME280;22748;8.426;99.512;2023-05-21T05:18:51;100651.06;;;33.45;55.15
36798;BME280;22748;8.426;99.512;2023-05-21T05:21:22;100642.56;;;33.42;54.45
36798;BME280;22748;8.426;99.512;2023-05-21T05:23:53;100647.31;;;33.34;54.83
36798;BME280;22748;8.426;99.512;2023-05-21T05:26:24;100644.34;;;33.48;54.75
36798;BME280;22748;8.426;99.512;2023-05-21T05:28:56;100641.25;;;33.56;54.50
36798;BME280;22748;8.426;99.512;2023-05-21T05:31:26;100640.28;;;33.62;54.77
36798;BME280;22748;8.426;99.512;2023-05-21T05:33:57;100633.84;;;33.63;54.37
36798;BME280;22748;8.426;99.512;2023-05-21T05:36:28;100638.16;;;33.64;54.05
36798;BME280;22748;8.426;99.512;2023-05-21T05:39:07;100636.41;;;33.70;53.97
36798;BME280;22748;8.426;99.512;2023-05-21T05:41:38;100642.75;;;33.75;53.99
36798;BME280;22748;8.426;99.512;2023-05-21T05:44:12;100636.59;;;33.80;54.67
36798;BME280;22748;8.426;99.512;2023-05-21T05:46:42;100632.22;;;33.79;54.99
36798;BME280;22748;8.426;99.512;2023-05-21T05:49:11;100643.28;;;33.77;54.68
36798;BME280;22748;8.426;99.512;2023-05-21T05:51:41;100648.97;;;33.76;55.02
36798;BME280;22748;8.426;99.512;2023-05-21T05:54:12;100641.09;;;33.74;54.20
36798;BME280;22748;8.426;99.512;2023-05-21T05:56:43;100645.78;;;33.79;53.70
36798;BME280;22748;8.426;99.512;2023-05-21T05:59:21;100651.03;;;33.86;53.20
36798;BME280;22748;8.426;99.512;2023-05-21T06:01:54;100670.59;;;33.88;53.66
36798;BME280;22748;8.426;99.512;2023-05-21T06:04:25;100702.78;;;33.84;54.17
36798;BME280;22748;8.426;99.512;2023-05-21T06:06:56;100710.47;;;33.75;54.58
36798;BME280;22748;8.426;99.512;2023-05-21T06:09:27;100711.19;;;33.59;55.32
36798;BME280;22748;8.426;99.512;2023-05-21T06:11:58;100698.47;;;33.48;55.73
36798;BME280;22748;8.426;99.512;2023-05-21T06:14:31;100703.66;;;33.49;55.79
36798;BME280;22748;8.426;99.512;2023-05-21T06:17:02;100699.16;;;33.55;55.76
36798;BME280;22748;8.426;99.512;2023-05-21T06:19:33;100711.41;;;33.57;56.33
36798;BME280;22748;8.426;99.512;2023-05-21T06:22:04;100700.59;;;33.46;56.68
36798;BME280;22748;8.426;99.512;2023-05-21T06:24:35;100694.00;;;33.42;56.57
36798;BME280;22748;8.426;99.512;2023-05-21T06:27:12;100698.94;;;33.45;55.84
36798;BME280;22748;8.426;99.512;2023-05-21T06:29:45;100694.59;;;33.44;55.91
36798;BME280;22748;8.426;99.512;2023-05-21T06:32:16;100698.00;;;33.51;55.83
36798;BME280;22748;8.426;99.512;2023-05-21T06:34:47;100696.34;;;33.50;55.39
36798;BME280;22748;8.426;99.512;2023-05-21T06:37:19;100690.69;;;33.51;55.11
36798;BME280;22748;8.426;99.512;2023-05-21T06:39:50;100685.63;;;33.55;54.98
36798;BME280;22748;8.426;99.512;2023-05-21T06:42:22;100694.69;;;33.49;55.12
36798;BME280;22748;8.426;99.512;2023-05-21T06:44:55;100691.41;;;33.47;55.47
36798;BME280;22748;8.426;99.512;2023-05-21T06:47:26;100696.81;;;33.47;55.86
36798;BME280;22748;8.426;99.512;2023-05-21T06:49:59;100693.53;;;33.45;56.02
36798;BME280;22748;8.426;99.512;2023-05-21T06:52:32;100707.19;;;33.50;56.09
36798;BME280;22748;8.426;99.512;2023-05-21T06:55:02;100716.84;;;33.46;55.94
36798;BME280;22748;8.426;99.512;2023-05-21T06:57:32;100722.63;;;33.49;56.00
36798;BME280;22748;8.426;99.512;2023-05-21T07:00:17;100710.03;;;33.43;56.29
36798;BME280;22748;8.426;99.512;2023-05-21T07:02:47;100701.91;;;33.43;56.44
36798;BME280;22748;8.426;99.512;2023-05-21T07:05:17;100707.66;;;33.47;56.39
36798;BME280;22748;8.426;99.512;2023-05-21T07:07:48;100710.34;;;33.47;55.67
36798;BME280;22748;8.426;99.512;2023-05-21T07:10:21;100692.84;;;33.49;55.88
36798;BME280;22748;8.426;99.512;2023-05-21T07:12:56;100694.81;;;33.54;55.69
36798;BME280;22748;8.426;99.512;2023-05-21T07:15:31;100697.53;;;33.54;55.30
36798;BME280;22748;8.426;99.512;2023-05-21T07:18:02;100701.28;;;33.53;55.49
36798;BME280;22748;8.426;99.512;2023-05-21T07:20:33;100702.09;;;33.53;55.37
36798;BME280;22748;8.426;99.512;2023-05-21T07:23:05;100690.69;;;33.51;55.47
36798;BME280;22748;8.426;99.512;2023-05-21T07:25:33;100682.91;;;33.55;55.43
36798;BME280;22748;8.426;99.512;2023-05-21T07:28:08;100679.03;;;33.51;55.26
36798;BME280;22748;8.426;99.512;2023-05-21T07:30:41;100666.44;;;33.45;55.26
36798;BME280;22748;8.426;99.512;2023-05-21T07:33:11;100650.34;;;33.50;55.18
36798;BME280;22748;8.426;99.512;2023-05-21T07:35:42;100632.09;;;33.45;55.26
36798;BME280;22748;8.426;99.512;2023-05-21T07:38:12;100609.13;;;33.48;55.46
36798;BME280;22748;8.426;99.512;2023-05-21T07:40:44;100617.34;;;33.53;55.26
36798;BME280;22748;8.426;99.512;2023-05-21T07:43:14;100620.41;;;33.56;55.75
36798;BME280;22748;8.426;99.512;2023-05-21T07:45:46;100625.25;;;33.54;55.37
36798;BME280;22748;8.426;99.512;2023-05-21T07:48:18;100640.66;;;33.54;55.25
36798;BME280;22748;8.426;99.512;2023-05-21T07:50:48;100648.44;;;33.50;55.57
36798;BME280;22748;8.426;99.512;2023-05-21T07:53:25;100650.22;;;33.45;55.64
36798;BME280;22748;8.426;99.512;2023-05-21T07:55:58;100637.25;;;33.47;55.67
36798;BME280;22748;8.426;99.512;2023-05-21T07:58:28;100618.31;;;33.47;55.86
36798;BME280;22748;8.426;99.512;2023-05-21T08:01:00;100615.94;;;33.50;55.91
36798;BME280;22748;8.426;99.512;2023-05-21T08:03:31;100621.13;;;33.52;55.51
36798;BME280;22748;8.426;99.512;2023-05-21T08:06:06;100616.69;;;33.46;55.55
36798;BME280;22748;8.426;99.512;2023-05-21T08:08:37;100610.09;;;33.42;56.06
36798;BME280;22748;8.426;99.512;2023-05-21T08:11:07;100622.59;;;33.31;56.01
36798;BME280;22748;8.426;99.512;2023-05-21T08:13:37;100625.06;;;33.32;55.82
36798;BME280;22748;8.426;99.512;2023-05-21T08:16:09;100627.19;;;33.30;55.37
36798;BME280;22748;8.426;99.512;2023-05-21T08:18:39;100645.56;;;33.28;55.41
36798;BME280;22748;8.426;99.512;2023-05-21T08:21:10;100654.13;;;33.25;55.00
36798;BME280;22748;8.426;99.512;2023-05-21T08:23:41;100663.69;;;33.16;55.55
36798;BME280;22748;8.426;99.512;2023-05-21T08:26:10;100667.34;;;33.10;55.46
36798;BME280;22748;8.426;99.512;2023-05-21T08:28:43;100668.78;;;33.12;55.06
36798;BME280;22748;8.426;99.512;2023-05-21T08:31:14;100675.13;;;33.06;55.29
36798;BME280;22748;8.426;99.512;2023-05-21T08:33:50;100669.09;;;33.04;55.06
36798;BME280;22748;8.426;99.512;2023-05-21T08:36:23;100665.13;;;33.07;55.58
36798;BME280;22748;8.426;99.512;2023-05-21T08:38:54;100653.22;;;33.08;55.68
36798;BME280;22748;8.426;99.512;2023-05-21T08:41:24;100647.22;;;33.06;55.63
36798;BME280;22748;8.426;99.512;2023-05-21T08:43:55;100638.88;;;33.07;55.57
36798;BME280;22748;8.426;99.512;2023-05-21T08:46:32;100626.63;;;33.05;55.74
36798;BME280;22748;8.426;99.512;2023-05-21T08:49:03;100606.06;;;33.04;56.15
36798;BME280;22748;8.426;99.512;2023-05-21T08:51:34;100609.34;;;33.06;56.31
36798;BME280;22748;8.426;99.512;2023-05-21T08:54:16;100607.22;;;33.08;56.08
36798;BME280;22748;8.426;99.512;2023-05-21T08:56:56;100598.06;;;33.09;56.20
36798;BME280;22748;8.426;99.512;2023-05-21T08:59:27;100595.81;;;33.06;55.87
36798;BME280;22748;8.426;99.512;2023-05-21T09:02:05;100600.28;;;33.00;55.34
36798;BME280;22748;8.426;99.512;2023-05-21T09:04:35;100593.56;;;33.03;55.17
36798;BME280;22748;8.426;99.512;2023-05-21T09:07:08;100601.09;;;33.00;55.28
36798;BME280;22748;8.426;99.512;2023-05-21T09:09:44;100601.00;;;32.95;55.21
36798;BME280;22748;8.426;99.512;2023-05-21T09:12:22;100597.25;;;32.85;55.37
36798;BME280;22748;8.426;99.512;2023-05-21T09:14:59;100599.47;;;32.88;55.66
36798;BME280;22748;8.426;99.512;2023-05-21T09:17:30;100596.53;;;32.89;55.83
36798;BME280;22748;8.426;99.512;2023-05-21T09:20:17;100609.97;;;32.84;54.89
36798;BME280;22748;8.426;99.512;2023-05-21T09:22:49;100608.06;;;32.73;55.20
36798;BME280;22748;8.426;99.512;2023-05-21T09:25:22;100606.88;;;32.81;55.58
36798;BME280;22748;8.426;99.512;2023-05-21T09:27:55;100612.19;;;32.75;55.76
36798;BME280;22748;8.426;99.512;2023-05-21T09:30:34;100616.88;;;32.68;55.89
36798;BME280;22748;8.426;99.512;2023-05-21T09:33:07;100624.16;;;32.68;56.03
36798;BME280;22748;8.426;99.512;2023-05-21T09:35:44;100621.00;;;32.59;56.14
36798;BME280;22748;8.426;99.512;2023-05-21T09:38:16;100616.88;;;32.56;56.37
36798;BME280;22748;8.426;99.512;2023-05-21T09:40:54;100617.59;;;32.64;56.19
36798;BME280;22748;8.426;99.512;2023-05-21T09:43:25;100613.25;;;32.63;56.43
36798;BME280;22748;8.426;99.512;2023-05-21T09:45:56;100599.25;;;32.66;56.70
36798;BME280;22748;8.426;99.512;2023-05-21T09:48:37;100601.34;;;32.64;56.76
36798;BME280;22748;8.426;99.512;2023-05-21T09:51:10;100597.13;;;32.68;56.75
36798;BME280;22748;8.426;99.512;2023-05-21T09:53:50;100602.44;;;32.63;56.80
36798;BME280;22748;8.426;99.512;2023-05-21T09:56:23;100595.94;;;32.64;56.47
36798;BME280;22748;8.426;99.512;2023-05-21T09:59:00;100590.09;;;32.67;56.24
36798;BME280;22748;8.426;99.512;2023-05-21T10:01:33;100592.06;;;32.59;55.89
36798;BME280;22748;8.426;99.512;2023-05-21T10:04:06;100592.56;;;32.56;56.23
36798;BME280;22748;8.426;99.512;2023-05-21T10:06:45;100586.66;;;32.59;56.10
36798;BME280;22748;8.426;99.512;2023-05-21T10:09:22;100584.44;;;32.56;55.99
36798;BME280;22748;8.426;99.512;2023-05-21T10:11:54;100585.25;;;32.57;55.94
36798;BME280;22748;8.426;99.512;2023-05-21T10:14:27;100584.09;;;32.53;56.26
36798;BME280;22748;8.426;99.512;2023-05-21T10:17:06;100590.88;;;32.55;56.39
36798;BME280;22748;8.426;99.512;2023-05-21T10:19:41;100591.03;;;32.61;56.09
36798;BME280;22748;8.426;99.512;2023-05-21T10:22:13;100595.84;;;32.58;55.73
36798;BME280;22748;8.426;99.512;2023-05-21T10:24:44;100605.72;;;32.53;55.81
36798;BME280;22748;8.426;99.512;2023-05-21T10:27:16;100599.94;;;32.49;55.89
36798;BME280;22748;8.426;99.512;2023-05-21T10:29:48;100603.44;;;32.38;56.30
36798;BME280;22748;8.426;99.512;2023-05-21T10:32:21;100603.09;;;32.34;56.21
36798;BME280;22748;8.426;99.512;2023-05-21T10:35:05;100595.31;;;32.26;56.73
36798;BME280;22748;8.426;99.512;2023-05-21T10:37:37;100602.47;;;32.21;57.34
36798;BME280;22748;8.426;99.512;2023-05-21T10:40:08;100596.38;;;32.25;57.26
36798;BME280;22748;8.426;99.512;2023-05-21T10:43:04;100600.25;;;32.17;57.58
36798;BME280;22748;8.426;99.512;2023-05-21T10:45:56;100602.94;;;32.17;57.65
36798;BME280;22748;8.426;99.512;2023-05-21T10:48:34;100602.56;;;32.14;57.73
36798;BME280;22748;8.426;99.512;2023-05-21T10:51:19;100601.41;;;32.10;57.72
36798;BME280;22748;8.426;99.512;2023-05-21T10:56:57;100604.59;;;32.18;57.67
36798;BME280;22748;8.426;99.512;2023-05-21T10:59:41;100600.94;;;32.13;58.11
36798;BME280;22748;8.426;99.512;2023-05-21T11:02:19;100606.72;;;32.16;57.96
36798;BME280;22748;8.426;99.512;2023-05-21T11:04:58;100606.34;;;32.13;57.88
36798;BME280;22748;8.426;99.512;2023-05-21T11:07:55;100612.75;;;32.00;58.40
36798;BME280;22748;8.426;99.512;2023-05-21T11:10:40;100617.69;;;32.03;58.27
36798;BME280;22748;8.426;99.512;2023-05-21T11:13:16;100609.84;;;32.02;58.58
36798;BME280;22748;8.426;99.512;2023-05-21T11:16:13;100607.72;;;32.04;58.69
36798;BME280;22748;8.426;99.512;2023-05-21T11:19:02;100617.13;;;32.01;58.89
36798;BME280;22748;8.426;99.512;2023-05-21T11:21:40;100618.28;;;32.05;58.65
36798;BME280;22748;8.426;99.512;2023-05-21T11:24:19;100623.09;;;32.03;58.41
36798;BME280;22748;8.426;99.512;2023-05-21T11:27:02;100622.66;;;32.06;58.77
36798;BME280;22748;8.426;99.512;2023-05-21T11:29:38;100635.09;;;32.07;58.64
36798;BME280;22748;8.426;99.512;2023-05-21T11:32:11;100631.97;;;31.92;59.07
36798;BME280;22748;8.426;99.512;2023-05-21T11:34:46;100631.53;;;31.95;58.60
36798;BME280;22748;8.426;99.512;2023-05-21T11:37:23;100632.44;;;31.89;58.72
36798;BME280;22748;8.426;99.512;2023-05-21T11:40:00;100634.44;;;31.93;58.55
36798;BME280;22748;8.426;99.512;2023-05-21T11:42:49;100638.28;;;31.86;59.01
36798;BME280;22748;8.426;99.512;2023-05-21T11:45:29;100642.03;;;31.85;58.80
36798;BME280;22748;8.426;99.512;2023-05-21T11:47:59;100639.25;;;31.91;59.02
36798;BME280;22748;8.426;99.512;2023-05-21T11:50:30;100647.44;;;31.85;58.64
36798;BME280;22748;8.426;99.512;2023-05-21T11:53:10;100646.97;;;31.88;58.85
36798;BME280;22748;8.426;99.512;2023-05-21T11:56:03;100651.22;;;31.84;58.88
36798;BME280;22748;8.426;99.512;2023-05-21T11:58:42;100656.44;;;31.78;59.15
36798;BME280;22748;8.426;99.512;2023-05-21T12:01:25;100655.03;;;31.76;58.86
36798;BME280;22748;8.426;99.512;2023-05-21T12:03:56;100660.81;;;31.80;58.82
36798;BME280;22748;8.426;99.512;2023-05-21T12:06:31;100662.44;;;31.81;58.77
36798;BME280;22748;8.426;99.512;2023-05-21T12:09:01;100671.63;;;31.80;58.74
36798;BME280;22748;8.426;99.512;2023-05-21T12:11:46;100679.84;;;31.85;58.83
36798;BME280;22748;8.426;99.512;2023-05-21T12:14:17;100686.44;;;31.89;58.76
36798;BME280;22748;8.426;99.512;2023-05-21T12:16:52;100688.41;;;31.82;59.06
36798;BME280;22748;8.426;99.512;2023-05-21T12:19:28;100691.84;;;31.70;59.55
36798;BME280;22748;8.426;99.512;2023-05-21T12:22:01;100688.91;;;31.60;59.68
36798;BME280;22748;8.426;99.512;2023-05-21T12:24:37;100687.66;;;31.37;59.92
36798;BME280;22748;8.426;99.512;2023-05-21T12:27:13;100695.13;;;31.17;60.66
36798;BME280;22748;8.426;99.512;2023-05-21T12:29:45;100689.00;;;31.10;60.78
36798;BME280;22748;8.426;99.512;2023-05-21T12:32:15;100692.97;;;31.26;60.66
36798;BME280;22748;8.426;99.512;2023-05-21T12:34:51;100696.06;;;31.29;60.51
36798;BME280;22748;8.426;99.512;2023-05-21T12:37:23;100702.81;;;31.39;60.42
36798;BME280;22748;8.426;99.512;2023-05-21T12:39:54;100703.56;;;31.27;60.52
36798;BME280;22748;8.426;99.512;2023-05-21T12:42:52;100705.13;;;31.35;60.60
36798;BME280;22748;8.426;99.512;2023-05-21T12:45:24;100701.94;;;31.45;60.07
36798;BME280;22748;8.426;99.512;2023-05-21T12:47:55;100718.81;;;31.59;60.13
36798;BME280;22748;8.426;99.512;2023-05-21T12:50:26;100712.84;;;31.68;59.90
36798;BME280;22748;8.426;99.512;2023-05-21T12:53:01;100715.72;;;31.73;59.55
36798;BME280;22748;8.426;99.512;2023-05-21T12:55:32;100725.03;;;31.77;59.79
36798;BME280;22748;8.426;99.512;2023-05-21T12:58:21;100728.94;;;31.82;59.22
36798;BME280;22748;8.426;99.512;2023-05-21T13:00:54;100737.63;;;31.84;59.42
36798;BME280;22748;8.426;99.512;2023-05-21T13:03:33;100743.47;;;31.81;59.49
36798;BME280;22748;8.426;99.512;2023-05-21T13:06:08;100754.81;;;31.71;59.79
36798;BME280;22748;8.426;99.512;2023-05-21T13:08:44;100748.13;;;31.73;59.38
36798;BME280;22748;8.426;99.512;2023-05-21T13:11:14;100754.13;;;31.75;59.57
36798;BME280;22748;8.426;99.512;2023-05-21T13:13:56;100756.38;;;31.78;59.33
36798;BME280;22748;8.426;99.512;2023-05-21T13:16:27;100759.44;;;31.82;59.58
36798;BME280;22748;8.426;99.512;2023-05-21T13:18:57;100759.66;;;31.81;59.66
36798;BME280;22748;8.426;99.512;2023-05-21T13:21:32;100767.63;;;31.75;59.71
36798;BME280;22748;8.426;99.512;2023-05-21T13:24:07;100763.50;;;31.73;59.53
36798;BME280;22748;8.426;99.512;2023-05-21T13:26:38;100773.94;;;31.69;59.90
36798;BME280;22748;8.426;99.512;2023-05-21T13:29:15;100774.59;;;31.65;60.01